Hovedside
METAR-TAF:

METAR-TAF

Lufthavner :

Osvaldo Vieira internasjonale lufthavn

Bissau, Guinea-Bissau

breddegrad: 11-53N, lengdegrad: 015-39W, høyde over havet: 39 m

Gjeldene værobservasjon

Denne rapporten ble laget for 6 timer og 0 minutter siden, klokken 23:00 UTC
Vind 2 kt fra skiftende retning
Temperatur 22°C
Luftfuktighet 65%
Trykk 1012 hPa
Sikt: 8000 m

METAR: GGOV 282300Z VRB02KT 8000 NSC 22/15 Q1012 NOSIG

Tid: 05:00 (05:00 UTC)

Varsel

Denne rapporten ble laget for 6 timer og 0 minutter siden, klokken 23:00 UTC
Varsel gyldig fra 29. klokken 00 UTC til 29. klokken 24 UTC
Vind 5 kt fra skiftende retning
Sikt: 8000 m
Midlertidig
fra 29. klokken 11 UTC til 29. klokken 16 UTC
Vind 10 kt fra Nordøst

TAF: GGOV 282300Z 2900/2924 VRB05KT 8000 NSC TEMPO 2911/2916 04010KT

Værobservasjoner og værvarsel for over 4000 flyplasser (METAR- og TAF-rapporter).

Tilgjengelige stasjoner er representert av de røde og gule prikkene på kartet.

Hold musepekeren over prikken for å se navnet på stasjonen.

Klikk så for å se værobservasjoner og -varsler.

For å forandre kartet kan du klikke på den grønne knappen med svart kryss for å zoome inn, på den grønne knappen med strek for å zoome ut, eller på de grønne pilene for å se tilstøtende kart.


METAR-TAF: